• Join FlightAware (Why Join?)
  • Login
  • US Flag 
12:53AM EDT


 

Airport Tracker/Info


-or-


 

Live Flight TrackerFlight Track Log ✈ TAM3858 ✈ 18-Jul-2013 ✈ SBPA / POA - SBCT / CWB

Flight Track Log - Related Links

Times and Time Zones

All times are in EDT time to prevent confusion due to time zone crossing. See the TAM3858 flight status page for this flight to view local times or setup timezone preferences in your user account.

Time Position Orientation Groundspeed Altitude Reporting Facility
EDT Latitude Longitude Course Direction KTS MPH feet Rate Location/Type
03:06PM -29.9920 -51.1770 73° East 10 12  Level FlightAware
03:06PM -29.9920 -51.1780 270° West 60 Level FlightAware
03:09PM -29.7841 -51.0807 22° Northeast  Level Estimated
03:10PM -29.6874 -51.0355 22° Northeast  Level Estimated
03:10PM -29.9920 -51.1770 22° Northeast 17 20  Level FlightAware
03:12PM -29.8115 -51.0925 22° Northeast  Level Estimated
03:12PM -29.9930 -51.1810 22° Northeast 22 25  Level FlightAware
03:14PM -29.8142 -51.0971 22° Northeast  Level Estimated
03:14PM -29.9940 -51.1820 22° Northeast 28 32  Level FlightAware
03:16PM -29.8023 -51.0921 22° Northeast  Level Estimated
03:17PM -29.7056 -51.0468 22° Northeast  Level Estimated
03:17PM -29.9940 -51.1800 22° Northeast 72 83  Level FlightAware
03:17PM -29.9950 -51.1650 94° East 160 184 1,260 Level FlightAware
03:17PM -29.9950 -51.1450 90° East 158 182 1,000 1,860 Climbing FlightAware
03:18PM -29.9970 -51.1130 94° East 197 227 1,800 1,320 Climbing FlightAware
03:18PM -29.9980 -51.0800 92° East 241 277 2,400 2,100 Climbing FlightAware
03:19PM -29.9770 -51.0230 67° East 283 326 4,400 2,880 Climbing FlightAware
03:19PM -29.9620 -51.0150 25° Northeast 276 318 5,200 3,720 Climbing FlightAware
03:20PM -29.9300 -51.0240 346° North 251 289 6,900 3,600 Climbing FlightAware
03:20PM -29.9190 -51.0380 312° West 243 280 7,800 3,360 Climbing FlightAware
03:21PM -29.8990 -51.0680 308° West 243 280 9,400 2,520 Climbing FlightAware
03:21PM -29.8690 -51.1080 311° West 269 310 10,700 2,040 Climbing FlightAware
03:22PM -29.8290 -51.1590 312° West 294 338 12,300 2,040 Climbing FlightAware
03:23PM -29.7860 -51.1940 325° Northwest 318 366 13,600 2,040 Climbing FlightAware
03:23PM -29.7240 -51.2340 331° Northwest 341 392 15,200 2,160 Climbing FlightAware
03:24PM -29.6640 -51.2530 345° North 369 425 16,600 2,040 Climbing FlightAware
03:25PM -29.5910 -51.2480 North 392 451 17,900 2,280 Climbing FlightAware
03:27PM -29.4306 -51.1629 25° Northeast  Level Estimated
03:28PM -29.3398 -51.1148 25° Northeast  Level Estimated
03:28PM -29.2700 -51.2420 25° Northeast 358 412 25,000  Level FlightAware
03:28PM -29.2080 -51.2520 352° North 365 420 25,800 720 Climbing FlightAware
03:29PM -29.1090 -51.2440 North 426 490 26,200 420 Climbing FlightAware
03:30PM -29.0340 -51.2040 25° Northeast 461 531 26,500 540 Climbing FlightAware
03:31PM -28.9620 -51.1590 29° Northeast 475 547 26,900 1,140 Climbing FlightAware
03:31PM -28.9060 -51.1230 29° Northeast 472 543 27,800 1,560 Climbing FlightAware
03:32PM -28.8240 -51.0720 29° Northeast 473 544 28,800 1,320 Climbing FlightAware
03:33PM -28.7370 -51.0170 29° Northeast 473 544 29,800 1,020 Climbing FlightAware
03:33PM -28.6610 -50.9690 29° Northeast 480 552 30,300 1,140 Climbing FlightAware
03:34PM -28.5790 -50.9170 29° Northeast 477 549 31,400 1,500 Climbing FlightAware
03:35PM -28.4980 -50.8660 29° Northeast 470 541 32,400 1,200 Climbing FlightAware
03:35PM -28.4120 -50.8130 28° Northeast 470 541 33,200 1,080 Climbing FlightAware
03:36PM -28.3330 -50.7630 29° Northeast 469 540 34,000 1,140 Climbing FlightAware
03:37PM -28.2580 -50.7170 28° Northeast 465 535 34,800 960 Climbing FlightAware
03:37PM -28.1770 -50.6660 29° Northeast 463 533 35,400 660 Climbing FlightAware
03:38PM -28.0990 -50.6170 29° Northeast 468 539 35,800 480 Climbing FlightAware
03:39PM -28.0220 -50.5690 29° Northeast 474 545 36,100 420 Climbing FlightAware
03:39PM -27.9490 -50.5240 29° Northeast 478 550 36,400 540 Climbing FlightAware
03:40PM -27.8750 -50.4780 29° Northeast 477 549 36,800 420 Climbing FlightAware
03:41PM -27.7890 -50.4250 29° Northeast 477 549 37,000 120 Climbing FlightAware
03:42PM -27.7040 -50.3730 28° Northeast 477 549 37,000  Level FlightAware
03:42PM -27.6290 -50.3270 29° Northeast 479 551 37,000  Level FlightAware
03:43PM -27.5460 -50.2760 29° Northeast 478 550 37,000  Level FlightAware
03:44PM -27.4680 -50.2280 29° Northeast 479 551 37,000  Level FlightAware
03:44PM -27.4040 -50.1880 29° Northeast 481 554 37,000  Level FlightAware
03:46PM -27.1950 -50.0580 29° Northeast 481 554 37,000 -1,440 Level FlightAware
03:47PM -27.0820 -50.0050 23° Northeast 487 560 33,100 -4,020 Descending FlightAware
03:48PM -26.9860 -49.9520 26° Northeast 476 548 31,300 -3,000 Descending FlightAware
03:48PM -26.8940 -49.9010 26° Northeast 454 522 28,800 -2,820 Descending FlightAware
03:49PM -26.8190 -49.8610 25° Northeast 445 512 27,400 -2,040 Descending FlightAware
03:50PM -26.7450 -49.8210 26° Northeast 434 499 26,100 -2,100 Descending FlightAware
03:50PM -26.6750 -49.7820 26° Northeast 423 487 24,700 -2,040 Descending FlightAware
03:51PM -26.6050 -49.7440 26° Northeast 413 475 23,400 -1,920 Descending FlightAware
03:52PM -26.5370 -49.7080 25° Northeast 406 467 22,200 -1,980 Descending FlightAware
03:52PM -26.4620 -49.6670 26° Northeast 399 459 20,700 -1,860 Descending FlightAware
03:53PM -26.4030 -49.6170 37° Northeast 403 464 19,600 -1,740 Descending FlightAware
03:54PM -26.3450 -49.5510 46° Northeast 395 455 18,300 -1,740 Descending FlightAware
03:54PM -26.3000 -49.5000 45° Northeast 389 448 17,300 -1,620 Descending FlightAware
03:55PM -26.2510 -49.4440 46° Northeast 383 441 16,300 -1,620 Descending FlightAware
03:56PM -26.2010 -49.3880 45° Northeast 377 434 15,200 -1,620 Descending FlightAware
03:57PM -26.1370 -49.3160 45° Northeast 371 427 13,800 -1,620 Descending FlightAware
03:57PM -26.0820 -49.2540 45° Northeast 369 425 12,600 -1,620 Descending FlightAware
03:58PM -26.0290 -49.1940 45° Northeast 367 422 11,400 -1,560 Descending FlightAware
03:59PM -25.9800 -49.1390 45° Northeast 363 418 10,400 -1,320 Descending FlightAware
04:00PM -25.9320 -49.0950 40° Northeast 335 386 9,700 -1,200 Descending FlightAware
04:00PM -25.8910 -49.0720 27° Northeast 319 367 9,000 -1,200 Descending FlightAware
04:01PM -25.8520 -49.0500 27° Northeast 312 359 8,500 -900 Descending FlightAware
04:01PM -25.8210 -49.0320 28° Northeast 313 360 8,200 -900 Descending FlightAware
04:01PM -25.8020 -49.0210 28° Northeast 311 358 7,900 -960 Descending FlightAware
04:02PM -25.7640 -49.0000 26° Northeast 305 351 7,500 -840 Descending FlightAware
04:02PM -25.7280 -48.9800 27° Northeast 284 327 7,100 -900 Descending FlightAware
04:02PM -25.7210 -48.9790 North 268 308 7,000 -900 Descending FlightAware
04:03PM -25.6920 -48.9930 336° Northwest 223 257 6,600 -840 Descending FlightAware
04:03PM -25.6710 -49.0160 315° West 211 243 6,200 -900 Descending FlightAware
04:04PM -25.6530 -49.0360 315° West 205 236 5,700 -780 Descending FlightAware
04:04PM -25.6350 -49.0560 315° West 190 219 5,500 -660 Descending FlightAware
04:05PM -25.6180 -49.0750 315° West 173 199 5,100 -840 Descending FlightAware
04:05PM -25.6100 -49.0840 315° West 169 194 4,900 -720 Descending FlightAware
04:05PM -25.5960 -49.1000 314° West 145 167 4,600 -720 Descending FlightAware
04:06PM -25.5860 -49.1110 315° West 139 160 4,300 -720 Descending FlightAware
04:06PM -25.5730 -49.1260 314° West 140 161 4,000 -660 Descending FlightAware
04:07PM -25.5620 -49.1380 315° West 140 161 3,700 -720 Descending FlightAware
04:07PM -25.5510 -49.1500 315° West 142 163 3,400 -720 Descending FlightAware
04:08PM -25.5280 -49.1760 314° West 46 53 -3,780 Descending FlightAware
04:09PM -25.5280 -49.1770 270° West 24 28  Level FlightAware
04:09PM -25.5280 -49.1780 270° West 29 33  Level FlightAware
04:09PM -25.5280 -49.1790 270° West 16 18  Level FlightAware
04:10PM -25.5300 -49.1790 180° South 33 38  Level FlightAware
04:10PM -25.5300 -49.1780 90° East 15 17  Level FlightAware
04:10PM -25.5300 -49.1770 90° East 34 39  Level FlightAware
04:10PM -25.5300 -49.1760 90° East 33 38  Level FlightAware
04:11PM -25.5320 -49.1740 138° Southeast 18 21  Level FlightAware
04:12PM -25.5340 -49.1730 156° South 28 32  Level FlightAware
04:12PM -25.5340 -49.1770 270° West 28 32  Level FlightAware